sensor_id;sensor_type;location;lat;lon;timestamp;P1;durP1;ratioP1;P2;durP2;ratioP2
70929;SDS011;58588;48.102;19.682;2023-06-26T00:02:05;11.48;;;3.55;;
70929;SDS011;58588;48.102;19.682;2023-06-26T00:05:07;10.23;;;3.95;;
70929;SDS011;58588;48.102;19.682;2023-06-26T00:08:11;9.43;;;3.83;;
70929;SDS011;58588;48.102;19.682;2023-06-26T00:11:13;9.33;;;3.70;;
70929;SDS011;58588;48.102;19.682;2023-06-26T00:14:15;8.45;;;3.85;;
70929;SDS011;58588;48.102;19.682;2023-06-26T00:17:19;12.25;;;4.00;;
70929;SDS011;58588;48.102;19.682;2023-06-26T00:20:21;10.73;;;4.47;;
70929;SDS011;58588;48.102;19.682;2023-06-26T00:23:26;10.37;;;3.70;;
70929;SDS011;58588;48.102;19.682;2023-06-26T00:26:31;10.60;;;3.80;;
70929;SDS011;58588;48.102;19.682;2023-06-26T00:29:33;8.30;;;3.88;;
70929;SDS011;58588;48.102;19.682;2023-06-26T00:32:35;11.02;;;3.88;;
70929;SDS011;58588;48.102;19.682;2023-06-26T00:35:37;9.07;;;4.10;;
70929;SDS011;58588;48.102;19.682;2023-06-26T00:38:40;10.30;;;3.28;;
70929;SDS011;58588;48.102;19.682;2023-06-26T00:41:42;10.77;;;3.77;;
70929;SDS011;58588;48.102;19.682;2023-06-26T00:44:44;8.70;;;3.95;;
70929;SDS011;58588;48.102;19.682;2023-06-26T00:47:46;9.43;;;3.75;;
70929;SDS011;58588;48.102;19.682;2023-06-26T00:50:49;10.73;;;4.03;;
70929;SDS011;58588;48.102;19.682;2023-06-26T00:53:52;9.50;;;3.70;;
70929;SDS011;58588;48.102;19.682;2023-06-26T00:56:55;12.97;;;3.80;;
70929;SDS011;58588;48.102;19.682;2023-06-26T00:59:57;9.75;;;3.35;;
70929;SDS011;58588;48.102;19.682;2023-06-26T01:02:59;9.55;;;3.70;;
70929;SDS011;58588;48.102;19.682;2023-06-26T01:06:01;12.05;;;3.90;;
70929;SDS011;58588;48.102;19.682;2023-06-26T01:09:05;14.43;;;3.88;;
70929;SDS011;58588;48.102;19.682;2023-06-26T01:12:07;9.23;;;3.67;;
70929;SDS011;58588;48.102;19.682;2023-06-26T01:15:09;10.57;;;3.92;;
70929;SDS011;58588;48.102;19.682;2023-06-26T01:18:12;10.13;;;4.03;;
70929;SDS011;58588;48.102;19.682;2023-06-26T01:21:15;9.20;;;3.30;;
70929;SDS011;58588;48.102;19.682;2023-06-26T01:24:20;9.63;;;3.83;;
70929;SDS011;58588;48.102;19.682;2023-06-26T01:27:28;12.37;;;4.20;;
70929;SDS011;58588;48.102;19.682;2023-06-26T01:30:33;14.18;;;4.07;;
70929;SDS011;58588;48.102;19.682;2023-06-26T01:33:36;12.45;;;4.10;;
70929;SDS011;58588;48.102;19.682;2023-06-26T01:36:39;11.25;;;3.70;;
70929;SDS011;58588;48.102;19.682;2023-06-26T01:39:41;9.27;;;3.72;;
70929;SDS011;58588;48.102;19.682;2023-06-26T01:42:44;9.70;;;3.57;;
70929;SDS011;58588;48.102;19.682;2023-06-26T01:45:48;11.85;;;3.92;;
70929;SDS011;58588;48.102;19.682;2023-06-26T01:48:54;10.55;;;3.55;;
70929;SDS011;58588;48.102;19.682;2023-06-26T01:52:03;13.00;;;4.18;;
70929;SDS011;58588;48.102;19.682;2023-06-26T01:55:13;10.77;;;3.73;;
70929;SDS011;58588;48.102;19.682;2023-06-26T01:58:22;9.27;;;3.80;;
70929;SDS011;58588;48.102;19.682;2023-06-26T02:01:26;11.35;;;3.80;;
70929;SDS011;58588;48.102;19.682;2023-06-26T02:04:28;10.25;;;3.50;;
70929;SDS011;58588;48.102;19.682;2023-06-26T02:07:30;11.50;;;3.92;;
70929;SDS011;58588;48.102;19.682;2023-06-26T02:10:33;11.10;;;3.40;;
70929;SDS011;58588;48.102;19.682;2023-06-26T02:13:36;23.07;;;3.80;;
70929;SDS011;58588;48.102;19.682;2023-06-26T02:16:38;10.48;;;4.28;;
70929;SDS011;58588;48.102;19.682;2023-06-26T02:19:40;17.17;;;4.50;;
70929;SDS011;58588;48.102;19.682;2023-06-26T02:22:47;11.20;;;4.10;;
70929;SDS011;58588;48.102;19.682;2023-06-26T02:25:49;11.03;;;3.87;;
70929;SDS011;58588;48.102;19.682;2023-06-26T02:28:53;11.27;;;3.70;;
70929;SDS011;58588;48.102;19.682;2023-06-26T02:31:55;10.88;;;3.72;;
70929;SDS011;58588;48.102;19.682;2023-06-26T02:34:57;10.18;;;3.67;;
70929;SDS011;58588;48.102;19.682;2023-06-26T02:37:59;9.65;;;3.85;;
70929;SDS011;58588;48.102;19.682;2023-06-26T02:41:01;9.00;;;3.60;;
70929;SDS011;58588;48.102;19.682;2023-06-26T02:44:04;13.10;;;4.40;;
70929;SDS011;58588;48.102;19.682;2023-06-26T02:47:07;10.23;;;3.97;;
70929;SDS011;58588;48.102;19.682;2023-06-26T02:50:09;9.75;;;4.07;;
70929;SDS011;58588;48.102;19.682;2023-06-26T02:53:11;10.55;;;3.85;;
70929;SDS011;58588;48.102;19.682;2023-06-26T02:56:13;11.00;;;3.50;;
70929;SDS011;58588;48.102;19.682;2023-06-26T02:59:16;13.23;;;3.80;;
70929;SDS011;58588;48.102;19.682;2023-06-26T03:02:19;12.40;;;3.70;;
70929;SDS011;58588;48.102;19.682;2023-06-26T03:05:21;16.40;;;4.13;;
70929;SDS011;58588;48.102;19.682;2023-06-26T03:08:24;9.98;;;4.07;;
70929;SDS011;58588;48.102;19.682;2023-06-26T03:11:26;8.63;;;3.67;;
70929;SDS011;58588;48.102;19.682;2023-06-26T03:14:29;11.07;;;4.03;;
70929;SDS011;58588;48.102;19.682;2023-06-26T03:17:32;9.70;;;3.42;;
70929;SDS011;58588;48.102;19.682;2023-06-26T03:20:34;13.65;;;3.58;;
70929;SDS011;58588;48.102;19.682;2023-06-26T03:23:36;8.93;;;3.63;;
70929;SDS011;58588;48.102;19.682;2023-06-26T03:26:38;8.43;;;3.80;;
70929;SDS011;58588;48.102;19.682;2023-06-26T03:29:41;12.47;;;4.30;;
70929;SDS011;58588;48.102;19.682;2023-06-26T03:32:43;9.80;;;4.20;;
70929;SDS011;58588;48.102;19.682;2023-06-26T03:35:45;9.57;;;4.22;;
70929;SDS011;58588;48.102;19.682;2023-06-26T03:38:47;9.65;;;3.80;;
70929;SDS011;58588;48.102;19.682;2023-06-26T03:41:49;11.23;;;4.13;;
70929;SDS011;58588;48.102;19.682;2023-06-26T03:44:54;10.80;;;4.10;;
70929;SDS011;58588;48.102;19.682;2023-06-26T03:47:56;10.35;;;4.30;;
70929;SDS011;58588;48.102;19.682;2023-06-26T03:50:58;12.88;;;4.55;;
70929;SDS011;58588;48.102;19.682;2023-06-26T03:54:02;10.25;;;4.15;;
70929;SDS011;58588;48.102;19.682;2023-06-26T03:57:04;9.27;;;4.40;;
70929;SDS011;58588;48.102;19.682;2023-06-26T04:00:09;11.33;;;4.30;;
70929;SDS011;58588;48.102;19.682;2023-06-26T04:03:13;11.05;;;4.20;;
70929;SDS011;58588;48.102;19.682;2023-06-26T04:06:15;12.57;;;4.60;;
70929;SDS011;58588;48.102;19.682;2023-06-26T04:09:17;12.75;;;4.45;;
70929;SDS011;58588;48.102;19.682;2023-06-26T04:12:19;9.07;;;4.37;;
70929;SDS011;58588;48.102;19.682;2023-06-26T04:15:23;13.07;;;5.13;;
70929;SDS011;58588;48.102;19.682;2023-06-26T04:18:25;9.15;;;4.28;;
70929;SDS011;58588;48.102;19.682;2023-06-26T04:21:27;8.70;;;4.22;;
70929;SDS011;58588;48.102;19.682;2023-06-26T04:24:29;12.57;;;4.22;;
70929;SDS011;58588;48.102;19.682;2023-06-26T04:27:31;9.38;;;3.92;;
70929;SDS011;58588;48.102;19.682;2023-06-26T04:30:35;15.27;;;3.73;;
70929;SDS011;58588;48.102;19.682;2023-06-26T04:33:38;8.88;;;4.20;;
70929;SDS011;58588;48.102;19.682;2023-06-26T04:36:40;10.25;;;4.32;;
70929;SDS011;58588;48.102;19.682;2023-06-26T04:39:48;10.32;;;4.25;;
70929;SDS011;58588;48.102;19.682;2023-06-26T04:42:50;10.63;;;4.47;;
70929;SDS011;58588;48.102;19.682;2023-06-26T04:45:53;9.70;;;3.93;;
70929;SDS011;58588;48.102;19.682;2023-06-26T04:48:55;11.57;;;4.50;;
70929;SDS011;58588;48.102;19.682;2023-06-26T04:51:58;10.27;;;4.15;;
70929;SDS011;58588;48.102;19.682;2023-06-26T04:55:01;12.23;;;4.07;;
70929;SDS011;58588;48.102;19.682;2023-06-26T04:58:03;11.45;;;4.00;;
70929;SDS011;58588;48.102;19.682;2023-06-26T05:01:06;10.33;;;3.97;;
70929;SDS011;58588;48.102;19.682;2023-06-26T05:04:08;9.10;;;3.85;;
70929;SDS011;58588;48.102;19.682;2023-06-26T05:07:10;9.45;;;4.20;;
70929;SDS011;58588;48.102;19.682;2023-06-26T05:10:12;8.55;;;3.88;;
70929;SDS011;58588;48.102;19.682;2023-06-26T05:13:14;10.30;;;3.85;;
70929;SDS011;58588;48.102;19.682;2023-06-26T05:16:19;9.60;;;3.87;;
70929;SDS011;58588;48.102;19.682;2023-06-26T05:19:21;11.63;;;3.90;;
70929;SDS011;58588;48.102;19.682;2023-06-26T05:22:23;9.93;;;3.67;;
70929;SDS011;58588;48.102;19.682;2023-06-26T05:25:26;12.43;;;4.00;;
70929;SDS011;58588;48.102;19.682;2023-06-26T05:28:30;9.25;;;4.00;;
70929;SDS011;58588;48.102;19.682;2023-06-26T05:31:34;9.00;;;3.97;;
70929;SDS011;58588;48.102;19.682;2023-06-26T05:34:40;9.63;;;4.25;;
70929;SDS011;58588;48.102;19.682;2023-06-26T05:37:43;13.27;;;4.30;;
70929;SDS011;58588;48.102;19.682;2023-06-26T05:40:46;8.88;;;4.32;;
70929;SDS011;58588;48.102;19.682;2023-06-26T05:43:48;8.32;;;4.32;;
70929;SDS011;58588;48.102;19.682;2023-06-26T05:46:52;10.93;;;4.33;;
70929;SDS011;58588;48.102;19.682;2023-06-26T05:49:54;11.48;;;4.70;;
70929;SDS011;58588;48.102;19.682;2023-06-26T05:52:56;7.75;;;3.90;;
70929;SDS011;58588;48.102;19.682;2023-06-26T05:55:59;8.57;;;4.00;;
70929;SDS011;58588;48.102;19.682;2023-06-26T05:59:01;10.43;;;4.70;;
70929;SDS011;58588;48.102;19.682;2023-06-26T06:02:07;9.60;;;4.30;;
70929;SDS011;58588;48.102;19.682;2023-06-26T06:05:09;11.98;;;4.78;;
70929;SDS011;58588;48.102;19.682;2023-06-26T06:08:11;9.30;;;4.13;;
70929;SDS011;58588;48.102;19.682;2023-06-26T06:11:13;9.55;;;4.53;;
70929;SDS011;58588;48.102;19.682;2023-06-26T06:14:16;8.95;;;4.10;;
70929;SDS011;58588;48.102;19.682;2023-06-26T06:17:19;11.90;;;4.40;;
70929;SDS011;58588;48.102;19.682;2023-06-26T06:20:22;8.75;;;4.47;;
70929;SDS011;58588;48.102;19.682;2023-06-26T06:23:24;9.50;;;4.18;;
70929;SDS011;58588;48.102;19.682;2023-06-26T06:26:26;9.43;;;4.38;;
70929;SDS011;58588;48.102;19.682;2023-06-26T06:29:28;11.07;;;4.70;;
70929;SDS011;58588;48.102;19.682;2023-06-26T06:32:32;9.77;;;5.03;;
70929;SDS011;58588;48.102;19.682;2023-06-26T06:35:34;12.32;;;5.00;;
70929;SDS011;58588;48.102;19.682;2023-06-26T06:38:36;11.55;;;4.97;;
70929;SDS011;58588;48.102;19.682;2023-06-26T06:41:38;13.02;;;5.13;;
70929;SDS011;58588;48.102;19.682;2023-06-26T06:44:40;12.73;;;5.85;;
70929;SDS011;58588;48.102;19.682;2023-06-26T06:47:43;16.93;;;5.43;;
70929;SDS011;58588;48.102;19.682;2023-06-26T06:50:45;9.45;;;4.97;;
70929;SDS011;58588;48.102;19.682;2023-06-26T06:53:47;10.10;;;5.55;;
70929;SDS011;58588;48.102;19.682;2023-06-26T06:56:49;9.70;;;4.90;;
70929;SDS011;58588;48.102;19.682;2023-06-26T06:59:52;12.88;;;5.85;;
70929;SDS011;58588;48.102;19.682;2023-06-26T07:02:55;10.00;;;5.07;;
70929;SDS011;58588;48.102;19.682;2023-06-26T07:05:57;14.27;;;5.50;;
70929;SDS011;58588;48.102;19.682;2023-06-26T07:09:00;10.05;;;4.97;;
70929;SDS011;58588;48.102;19.682;2023-06-26T07:12:03;10.38;;;4.78;;
70929;SDS011;58588;48.102;19.682;2023-06-26T07:15:06;13.30;;;5.43;;
70929;SDS011;58588;48.102;19.682;2023-06-26T07:18:10;13.37;;;5.30;;
70929;SDS011;58588;48.102;19.682;2023-06-26T07:21:12;9.40;;;4.70;;
70929;SDS011;58588;48.102;19.682;2023-06-26T07:24:14;11.43;;;5.20;;
70929;SDS011;58588;48.102;19.682;2023-06-26T07:27:16;10.23;;;5.03;;
70929;SDS011;58588;48.102;19.682;2023-06-26T07:30:19;9.98;;;5.10;;
70929;SDS011;58588;48.102;19.682;2023-06-26T07:33:23;11.03;;;5.10;;
70929;SDS011;58588;48.102;19.682;2023-06-26T07:36:25;11.98;;;5.18;;
70929;SDS011;58588;48.102;19.682;2023-06-26T07:39:27;10.85;;;4.85;;
70929;SDS011;58588;48.102;19.682;2023-06-26T07:42:29;9.88;;;5.30;;
70929;SDS011;58588;48.102;19.682;2023-06-26T07:45:31;14.35;;;5.07;;
70929;SDS011;58588;48.102;19.682;2023-06-26T07:48:34;11.20;;;5.70;;
70929;SDS011;58588;48.102;19.682;2023-06-26T07:51:36;9.77;;;5.10;;
70929;SDS011;58588;48.102;19.682;2023-06-26T07:54:38;10.20;;;4.82;;
70929;SDS011;58588;48.102;19.682;2023-06-26T07:57:40;10.07;;;5.35;;
70929;SDS011;58588;48.102;19.682;2023-06-26T08:00:42;11.48;;;5.20;;
70929;SDS011;58588;48.102;19.682;2023-06-26T08:03:46;11.23;;;5.23;;
70929;SDS011;58588;48.102;19.682;2023-06-26T08:06:48;9.60;;;5.53;;
70929;SDS011;58588;48.102;19.682;2023-06-26T08:09:51;10.02;;;4.80;;
70929;SDS011;58588;48.102;19.682;2023-06-26T08:12:53;12.48;;;5.38;;
70929;SDS011;58588;48.102;19.682;2023-06-26T08:15:56;14.68;;;5.93;;
70929;SDS011;58588;48.102;19.682;2023-06-26T08:18:59;8.87;;;5.10;;
70929;SDS011;58588;48.102;19.682;2023-06-26T08:22:02;11.77;;;5.40;;
70929;SDS011;58588;48.102;19.682;2023-06-26T08:25:04;8.60;;;5.05;;
70929;SDS011;58588;48.102;19.682;2023-06-26T08:28:07;10.05;;;5.20;;
70929;SDS011;58588;48.102;19.682;2023-06-26T08:31:09;9.02;;;4.90;;
70929;SDS011;58588;48.102;19.682;2023-06-26T08:34:12;11.37;;;4.90;;
70929;SDS011;58588;48.102;19.682;2023-06-26T08:37:14;10.80;;;4.85;;
70929;SDS011;58588;48.102;19.682;2023-06-26T08:40:18;9.98;;;5.40;;
70929;SDS011;58588;48.102;19.682;2023-06-26T08:43:22;12.00;;;5.32;;
70929;SDS011;58588;48.102;19.682;2023-06-26T08:46:24;8.80;;;5.07;;
70929;SDS011;58588;48.102;19.682;2023-06-26T08:49:30;10.07;;;5.20;;
70929;SDS011;58588;48.102;19.682;2023-06-26T08:52:40;11.00;;;5.10;;
70929;SDS011;58588;48.102;19.682;2023-06-26T08:55:46;10.02;;;5.22;;
70929;SDS011;58588;48.102;19.682;2023-06-26T08:58:53;9.35;;;4.82;;
70929;SDS011;58588;48.102;19.682;2023-06-26T09:01:56;10.23;;;5.30;;
70929;SDS011;58588;48.102;19.682;2023-06-26T09:05:00;8.77;;;4.90;;
70929;SDS011;58588;48.102;19.682;2023-06-26T09:08:03;10.60;;;5.35;;
70929;SDS011;58588;48.102;19.682;2023-06-26T09:11:05;10.38;;;5.03;;
70929;SDS011;58588;48.102;19.682;2023-06-26T09:14:07;14.25;;;5.28;;
70929;SDS011;58588;48.102;19.682;2023-06-26T09:17:10;10.43;;;5.25;;
70929;SDS011;58588;48.102;19.682;2023-06-26T09:20:15;9.43;;;4.87;;
70929;SDS011;58588;48.102;19.682;2023-06-26T09:23:17;10.98;;;5.18;;
70929;SDS011;58588;48.102;19.682;2023-06-26T09:26:19;9.05;;;5.13;;
70929;SDS011;58588;48.102;19.682;2023-06-26T09:29:23;10.23;;;4.78;;
70929;SDS011;58588;48.102;19.682;2023-06-26T09:32:26;9.95;;;5.50;;
70929;SDS011;58588;48.102;19.682;2023-06-26T09:35:30;14.70;;;5.60;;
70929;SDS011;58588;48.102;19.682;2023-06-26T09:38:33;9.10;;;4.72;;
70929;SDS011;58588;48.102;19.682;2023-06-26T09:41:35;10.05;;;5.10;;
70929;SDS011;58588;48.102;19.682;2023-06-26T09:44:42;10.13;;;5.32;;
70929;SDS011;58588;48.102;19.682;2023-06-26T09:47:45;11.25;;;5.00;;
70929;SDS011;58588;48.102;19.682;2023-06-26T09:50:49;10.17;;;5.10;;
70929;SDS011;58588;48.102;19.682;2023-06-26T09:53:51;9.48;;;5.03;;
70929;SDS011;58588;48.102;19.682;2023-06-26T09:56:53;9.95;;;4.78;;
70929;SDS011;58588;48.102;19.682;2023-06-26T09:59:57;10.77;;;5.20;;
70929;SDS011;58588;48.102;19.682;2023-06-26T10:03:00;8.80;;;4.72;;
70929;SDS011;58588;48.102;19.682;2023-06-26T10:06:03;17.10;;;5.63;;
70929;SDS011;58588;48.102;19.682;2023-06-26T10:09:06;8.73;;;4.85;;
70929;SDS011;58588;48.102;19.682;2023-06-26T10:12:11;11.40;;;5.30;;
70929;SDS011;58588;48.102;19.682;2023-06-26T10:15:19;9.48;;;5.35;;
70929;SDS011;58588;48.102;19.682;2023-06-26T10:18:22;9.85;;;5.07;;
70929;SDS011;58588;48.102;19.682;2023-06-26T10:21:29;10.47;;;5.10;;
70929;SDS011;58588;48.102;19.682;2023-06-26T10:24:33;10.18;;;5.22;;
70929;SDS011;58588;48.102;19.682;2023-06-26T10:27:38;10.50;;;5.40;;
70929;SDS011;58588;48.102;19.682;2023-06-26T10:30:44;8.70;;;5.07;;
70929;SDS011;58588;48.102;19.682;2023-06-26T10:33:49;11.70;;;5.38;;
70929;SDS011;58588;48.102;19.682;2023-06-26T10:36:59;13.77;;;4.77;;
70929;SDS011;58588;48.102;19.682;2023-06-26T10:40:02;8.63;;;4.90;;
70929;SDS011;58588;48.102;19.682;2023-06-26T10:43:05;10.43;;;5.18;;
70929;SDS011;58588;48.102;19.682;2023-06-26T10:46:08;10.57;;;5.05;;
70929;SDS011;58588;48.102;19.682;2023-06-26T10:49:10;9.95;;;5.20;;
70929;SDS011;58588;48.102;19.682;2023-06-26T10:52:15;8.40;;;5.10;;
70929;SDS011;58588;48.102;19.682;2023-06-26T10:55:17;12.13;;;5.38;;
70929;SDS011;58588;48.102;19.682;2023-06-26T10:58:32;11.10;;;5.72;;
70929;SDS011;58588;48.102;19.682;2023-06-26T11:01:39;10.00;;;5.40;;
70929;SDS011;58588;48.102;19.682;2023-06-26T11:04:44;9.82;;;5.25;;
70929;SDS011;58588;48.102;19.682;2023-06-26T11:11:16;9.43;;;5.07;;
70929;SDS011;58588;48.102;19.682;2023-06-26T11:14:19;9.13;;;4.90;;
70929;SDS011;58588;48.102;19.682;2023-06-26T11:17:21;10.23;;;5.05;;
70929;SDS011;58588;48.102;19.682;2023-06-26T11:20:27;14.55;;;4.75;;
70929;SDS011;58588;48.102;19.682;2023-06-26T11:23:29;10.27;;;5.20;;
70929;SDS011;58588;48.102;19.682;2023-06-26T11:26:39;11.00;;;5.25;;
70929;SDS011;58588;48.102;19.682;2023-06-26T11:29:47;9.57;;;4.93;;
70929;SDS011;58588;48.102;19.682;2023-06-26T11:32:49;9.60;;;4.85;;
70929;SDS011;58588;48.102;19.682;2023-06-26T11:35:52;9.68;;;5.05;;
70929;SDS011;58588;48.102;19.682;2023-06-26T11:38:54;10.05;;;5.10;;
70929;SDS011;58588;48.102;19.682;2023-06-26T11:41:58;9.48;;;5.20;;
70929;SDS011;58588;48.102;19.682;2023-06-26T11:45:01;9.20;;;5.10;;
70929;SDS011;58588;48.102;19.682;2023-06-26T11:48:03;10.00;;;5.32;;
70929;SDS011;58588;48.102;19.682;2023-06-26T11:51:05;8.70;;;5.30;;
70929;SDS011;58588;48.102;19.682;2023-06-26T11:54:07;10.95;;;5.60;;
70929;SDS011;58588;48.102;19.682;2023-06-26T11:57:14;10.40;;;5.43;;
70929;SDS011;58588;48.102;19.682;2023-06-26T12:00:19;8.47;;;5.40;;
70929;SDS011;58588;48.102;19.682;2023-06-26T12:03:22;11.45;;;5.68;;
70929;SDS011;58588;48.102;19.682;2023-06-26T12:06:24;10.65;;;5.30;;
70929;SDS011;58588;48.102;19.682;2023-06-26T12:09:27;12.48;;;5.43;;
70929;SDS011;58588;48.102;19.682;2023-06-26T12:12:31;10.70;;;5.57;;
70929;SDS011;58588;48.102;19.682;2023-06-26T12:15:34;9.37;;;5.53;;
70929;SDS011;58588;48.102;19.682;2023-06-26T12:18:36;9.45;;;5.53;;
70929;SDS011;58588;48.102;19.682;2023-06-26T12:21:47;9.40;;;5.30;;
70929;SDS011;58588;48.102;19.682;2023-06-26T12:24:52;9.15;;;5.00;;
70929;SDS011;58588;48.102;19.682;2023-06-26T12:27:59;9.38;;;5.78;;
70929;SDS011;58588;48.102;19.682;2023-06-26T12:34:27;9.10;;;5.72;;
70929;SDS011;58588;48.102;19.682;2023-06-26T12:37:30;8.93;;;5.47;;
70929;SDS011;58588;48.102;19.682;2023-06-26T12:40:44;9.68;;;5.70;;
70929;SDS011;58588;48.102;19.682;2023-06-26T12:43:48;9.98;;;5.90;;
70929;SDS011;58588;48.102;19.682;2023-06-26T12:46:53;8.63;;;5.27;;
70929;SDS011;58588;48.102;19.682;2023-06-26T12:49:56;9.82;;;5.72;;
70929;SDS011;58588;48.102;19.682;2023-06-26T12:52:58;13.30;;;5.65;;
70929;SDS011;58588;48.102;19.682;2023-06-26T12:56:00;9.43;;;5.78;;
70929;SDS011;58588;48.102;19.682;2023-06-26T12:59:04;9.55;;;5.38;;
70929;SDS011;58588;48.102;19.682;2023-06-26T13:02:06;9.17;;;5.70;;
70929;SDS011;58588;48.102;19.682;2023-06-26T13:05:11;9.45;;;5.43;;
70929;SDS011;58588;48.102;19.682;2023-06-26T13:08:13;9.95;;;5.38;;
70929;SDS011;58588;48.102;19.682;2023-06-26T13:11:17;12.52;;;5.68;;
70929;SDS011;58588;48.102;19.682;2023-06-26T13:14:20;14.05;;;5.90;;
70929;SDS011;58588;48.102;19.682;2023-06-26T13:17:22;9.43;;;5.33;;
70929;SDS011;58588;48.102;19.682;2023-06-26T13:20:24;8.88;;;5.07;;
70929;SDS011;58588;48.102;19.682;2023-06-26T13:23:27;9.15;;;5.28;;
70929;SDS011;58588;48.102;19.682;2023-06-26T13:26:29;10.18;;;5.65;;
70929;SDS011;58588;48.102;19.682;2023-06-26T13:29:33;9.20;;;5.43;;
70929;SDS011;58588;48.102;19.682;2023-06-26T13:32:35;9.73;;;5.97;;
70929;SDS011;58588;48.102;19.682;2023-06-26T13:35:37;9.85;;;5.53;;
70929;SDS011;58588;48.102;19.682;2023-06-26T13:38:39;9.40;;;5.40;;
70929;SDS011;58588;48.102;19.682;2023-06-26T13:41:41;12.25;;;5.55;;
70929;SDS011;58588;48.102;19.682;2023-06-26T13:44:44;10.25;;;5.60;;
70929;SDS011;58588;48.102;19.682;2023-06-26T13:47:46;10.70;;;5.40;;
70929;SDS011;58588;48.102;19.682;2023-06-26T13:50:49;9.52;;;5.85;;
70929;SDS011;58588;48.102;19.682;2023-06-26T13:53:51;9.85;;;5.70;;
70929;SDS011;58588;48.102;19.682;2023-06-26T13:56:54;10.38;;;5.32;;
70929;SDS011;58588;48.102;19.682;2023-06-26T13:59:59;8.70;;;5.53;;
70929;SDS011;58588;48.102;19.682;2023-06-26T14:03:03;10.57;;;5.40;;
70929;SDS011;58588;48.102;19.682;2023-06-26T14:06:06;12.77;;;5.75;;
70929;SDS011;58588;48.102;19.682;2023-06-26T14:09:08;8.95;;;5.13;;
70929;SDS011;58588;48.102;19.682;2023-06-26T14:12:10;10.45;;;6.05;;
70929;SDS011;58588;48.102;19.682;2023-06-26T14:15:14;12.98;;;6.10;;
70929;SDS011;58588;48.102;19.682;2023-06-26T14:18:16;9.40;;;5.57;;
70929;SDS011;58588;48.102;19.682;2023-06-26T14:21:18;10.00;;;6.13;;
70929;SDS011;58588;48.102;19.682;2023-06-26T14:24:20;10.88;;;6.75;;
70929;SDS011;58588;48.102;19.682;2023-06-26T14:27:22;10.43;;;6.05;;
70929;SDS011;58588;48.102;19.682;2023-06-26T14:30:26;11.70;;;6.03;;
70929;SDS011;58588;48.102;19.682;2023-06-26T14:33:28;10.60;;;6.17;;
70929;SDS011;58588;48.102;19.682;2023-06-26T14:36:30;10.95;;;5.65;;
70929;SDS011;58588;48.102;19.682;2023-06-26T14:39:32;10.63;;;5.88;;
70929;SDS011;58588;48.102;19.682;2023-06-26T14:42:34;10.02;;;6.28;;
70929;SDS011;58588;48.102;19.682;2023-06-26T14:45:38;9.90;;;5.72;;
70929;SDS011;58588;48.102;19.682;2023-06-26T14:48:40;8.53;;;5.63;;
70929;SDS011;58588;48.102;19.682;2023-06-26T14:51:42;9.90;;;5.60;;
70929;SDS011;58588;48.102;19.682;2023-06-26T14:54:44;10.73;;;6.28;;
70929;SDS011;58588;48.102;19.682;2023-06-26T14:57:46;10.70;;;6.07;;
70929;SDS011;58588;48.102;19.682;2023-06-26T15:00:49;10.05;;;6.43;;
70929;SDS011;58588;48.102;19.682;2023-06-26T15:03:51;9.93;;;6.37;;
70929;SDS011;58588;48.102;19.682;2023-06-26T15:06:53;9.70;;;6.22;;
70929;SDS011;58588;48.102;19.682;2023-06-26T15:09:58;10.90;;;5.75;;
70929;SDS011;58588;48.102;19.682;2023-06-26T15:13:00;11.52;;;6.03;;
70929;SDS011;58588;48.102;19.682;2023-06-26T15:16:04;10.27;;;6.18;;
70929;SDS011;58588;48.102;19.682;2023-06-26T15:19:06;10.50;;;6.37;;
70929;SDS011;58588;48.102;19.682;2023-06-26T15:22:09;9.40;;;5.82;;
70929;SDS011;58588;48.102;19.682;2023-06-26T15:25:11;9.13;;;6.13;;
70929;SDS011;58588;48.102;19.682;2023-06-26T15:28:13;10.38;;;6.10;;
70929;SDS011;58588;48.102;19.682;2023-06-26T15:31:16;10.43;;;6.40;;
70929;SDS011;58588;48.102;19.682;2023-06-26T15:34:19;9.17;;;5.80;;
70929;SDS011;58588;48.102;19.682;2023-06-26T15:37:21;9.90;;;5.80;;
70929;SDS011;58588;48.102;19.682;2023-06-26T15:40:23;10.15;;;6.07;;
70929;SDS011;58588;48.102;19.682;2023-06-26T15:43:25;8.45;;;5.32;;
70929;SDS011;58588;48.102;19.682;2023-06-26T15:46:28;10.23;;;5.97;;
70929;SDS011;58588;48.102;19.682;2023-06-26T15:49:30;10.00;;;5.60;;
70929;SDS011;58588;48.102;19.682;2023-06-26T15:52:32;9.43;;;5.57;;
70929;SDS011;58588;48.102;19.682;2023-06-26T15:55:34;9.85;;;6.25;;
70929;SDS011;58588;48.102;19.682;2023-06-26T15:58:36;10.15;;;5.82;;
70929;SDS011;58588;48.102;19.682;2023-06-26T16:01:43;9.23;;;5.60;;
70929;SDS011;58588;48.102;19.682;2023-06-26T16:04:45;8.93;;;5.53;;
70929;SDS011;58588;48.102;19.682;2023-06-26T16:07:47;9.35;;;5.68;;
70929;SDS011;58588;48.102;19.682;2023-06-26T16:10:49;9.15;;;5.80;;
70929;SDS011;58588;48.102;19.682;2023-06-26T16:13:52;10.07;;;5.68;;
70929;SDS011;58588;48.102;19.682;2023-06-26T16:16:56;11.52;;;5.47;;
70929;SDS011;58588;48.102;19.682;2023-06-26T16:19:59;13.37;;;5.97;;
70929;SDS011;58588;48.102;19.682;2023-06-26T16:23:01;9.00;;;5.90;;
70929;SDS011;58588;48.102;19.682;2023-06-26T16:26:03;8.73;;;5.85;;
70929;SDS011;58588;48.102;19.682;2023-06-26T16:29:05;8.48;;;5.53;;
70929;SDS011;58588;48.102;19.682;2023-06-26T16:32:09;8.35;;;5.65;;
70929;SDS011;58588;48.102;19.682;2023-06-26T16:35:11;8.77;;;5.13;;
70929;SDS011;58588;48.102;19.682;2023-06-26T16:38:13;9.07;;;5.22;;
70929;SDS011;58588;48.102;19.682;2023-06-26T16:41:15;8.85;;;5.70;;
70929;SDS011;58588;48.102;19.682;2023-06-26T16:44:17;9.43;;;5.50;;
70929;SDS011;58588;48.102;19.682;2023-06-26T16:47:21;8.82;;;5.88;;
70929;SDS011;58588;48.102;19.682;2023-06-26T16:50:27;8.10;;;4.93;;
70929;SDS011;58588;48.102;19.682;2023-06-26T16:53:30;9.55;;;5.20;;
70929;SDS011;58588;48.102;19.682;2023-06-26T16:56:32;11.07;;;5.45;;
70929;SDS011;58588;48.102;19.682;2023-06-26T16:59:34;8.52;;;5.32;;
70929;SDS011;58588;48.102;19.682;2023-06-26T17:02:38;7.90;;;5.18;;
70929;SDS011;58588;48.102;19.682;2023-06-26T17:05:41;7.97;;;5.10;;
70929;SDS011;58588;48.102;19.682;2023-06-26T17:08:43;8.52;;;5.35;;
70929;SDS011;58588;48.102;19.682;2023-06-26T17:11:45;8.98;;;5.10;;
70929;SDS011;58588;48.102;19.682;2023-06-26T17:14:47;7.93;;;5.13;;
70929;SDS011;58588;48.102;19.682;2023-06-26T17:17:50;9.57;;;5.60;;
70929;SDS011;58588;48.102;19.682;2023-06-26T17:20:52;9.10;;;5.30;;
70929;SDS011;58588;48.102;19.682;2023-06-26T17:23:54;8.48;;;5.25;;
70929;SDS011;58588;48.102;19.682;2023-06-26T17:27:06;9.73;;;5.50;;
70929;SDS011;58588;48.102;19.682;2023-06-26T17:30:10;9.38;;;4.97;;
70929;SDS011;58588;48.102;19.682;2023-06-26T17:33:14;8.65;;;5.28;;
70929;SDS011;58588;48.102;19.682;2023-06-26T17:36:16;9.73;;;5.30;;
70929;SDS011;58588;48.102;19.682;2023-06-26T17:39:18;9.23;;;5.10;;
70929;SDS011;58588;48.102;19.682;2023-06-26T17:42:20;8.63;;;5.18;;
70929;SDS011;58588;48.102;19.682;2023-06-26T17:45:22;9.40;;;5.43;;
70929;SDS011;58588;48.102;19.682;2023-06-26T17:48:26;9.75;;;5.55;;
70929;SDS011;58588;48.102;19.682;2023-06-26T17:51:28;13.37;;;6.73;;
70929;SDS011;58588;48.102;19.682;2023-06-26T17:54:31;9.90;;;5.80;;
70929;SDS011;58588;48.102;19.682;2023-06-26T17:57:34;16.15;;;5.93;;
70929;SDS011;58588;48.102;19.682;2023-06-26T18:00:36;11.93;;;5.53;;
70929;SDS011;58588;48.102;19.682;2023-06-26T18:03:39;10.82;;;5.88;;
70929;SDS011;58588;48.102;19.682;2023-06-26T18:06:42;13.83;;;6.00;;